Time;durP1;ratioP1;P1;durP2;ratioP2;P2;SDS_P1;SDS_P2;PMS_P1;PMS_P2;Temp;Humidity;BMP_temperature;BMP_pressure;BME280_temperature;BME280_humidity;BME280_pressure;Samples;Min_cycle;Max_cycle;Signal;HPM_P1;HPM_P2
2021/06/26 00:01:23;;;;;;;3.42;1.52;;;;;;;;;;5064030;28;20046;-75
2021/06/26 00:04:07;;;;;;;2.35;1.30;;;;;;;;;;5065877;28;20491;-75
2021/06/26 00:06:52;;;;;;;2.70;1.30;;;;;;;;;;5062462;28;20089;-73
2021/06/26 00:09:36;;;;;;;2.85;1.40;;;;;;;;;;5065063;28;20170;-74
2021/06/26 00:12:21;;;;;;;1.70;1.30;;;;;;;;;;5056551;28;20094;-75
2021/06/26 00:15:07;;;;;;;3.85;1.27;;;;;;;;;;5064381;28;20035;-74
2021/06/26 00:17:51;;;;;;;3.00;1.20;;;;;;;;;;5082531;28;20110;-74
2021/06/26 00:20:36;;;;;;;2.28;1.50;;;;;;;;;;5063454;28;20098;-74
2021/06/26 00:23:20;;;;;;;3.10;1.33;;;;;;;;;;5059678;28;21543;-74
2021/06/26 00:26:05;;;;;;;3.53;1.23;;;;;;;;;;5063862;28;20112;-74
2021/06/26 00:28:50;;;;;;;3.05;1.30;;;;;;;;;;5065617;28;20110;-76
2021/06/26 00:31:34;;;;;;;4.20;1.40;;;;;;;;;;5065864;28;20124;-74
2021/06/26 00:34:18;;;;;;;3.85;1.50;;;;;;;;;;5057021;28;20089;-74
2021/06/26 00:37:03;;;;;;;4.13;1.50;;;;;;;;;;5060189;28;20059;-74
2021/06/26 00:39:48;;;;;;;4.38;1.45;;;;;;;;;;5064065;28;20514;-75
2021/06/26 00:42:33;;;;;;;3.65;1.50;;;;;;;;;;5050076;28;20090;-75
2021/06/26 00:45:18;;;;;;;4.03;1.48;;;;;;;;;;5068938;28;20039;-74
2021/06/26 00:48:03;;;;;;;3.63;1.40;;;;;;;;;;5065675;28;20043;-75
2021/06/26 00:50:47;;;;;;;3.95;1.42;;;;;;;;;;5066215;28;20101;-76
2021/06/26 00:53:32;;;;;;;3.25;1.40;;;;;;;;;;5070490;28;20640;-76
2021/06/26 00:56:16;;;;;;;2.90;1.40;;;;;;;;;;5062603;28;20538;-76
2021/06/26 00:59:01;;;;;;;3.50;1.73;;;;;;;;;;5066651;28;20035;-76
2021/06/26 01:01:45;;;;;;;2.60;1.30;;;;;;;;;;5063792;28;20803;-76
2021/06/26 01:04:30;;;;;;;2.78;1.52;;;;;;;;;;5063559;28;20063;-76
2021/06/26 01:07:15;;;;;;;2.65;1.30;;;;;;;;;;5063674;28;20669;-76
2021/06/26 01:09:59;;;;;;;4.10;1.50;;;;;;;;;;5067995;28;20048;-75
2021/06/26 01:12:44;;;;;;;3.08;1.60;;;;;;;;;;5063493;28;20075;-76
2021/06/26 01:15:29;;;;;;;3.17;1.35;;;;;;;;;;5063917;28;20044;-76
2021/06/26 01:18:14;;;;;;;3.42;1.58;;;;;;;;;;5067821;28;20066;-76
2021/06/26 01:20:59;;;;;;;3.70;1.67;;;;;;;;;;5057284;28;20062;-77
2021/06/26 01:23:49;;;;;;;4.45;1.85;;;;;;;;;;5043996;28;20047;-76
2021/06/26 01:26:36;;;;;;;3.80;1.73;;;;;;;;;;5060595;28;20066;-76
2021/06/26 01:29:21;;;;;;;3.45;1.88;;;;;;;;;;5064318;28;20036;-76
2021/06/26 01:32:06;;;;;;;5.53;1.70;;;;;;;;;;5063948;28;20119;-75
2021/06/26 01:34:51;;;;;;;3.30;1.48;;;;;;;;;;5062570;28;20105;-76
2021/06/26 01:37:39;;;;;;;3.08;1.70;;;;;;;;;;5063340;28;20592;-76
2021/06/26 01:40:25;;;;;;;2.50;1.33;;;;;;;;;;5048883;28;20082;-76
2021/06/26 01:43:12;;;;;;;3.03;1.60;;;;;;;;;;5060655;28;20478;-76
2021/06/26 01:45:57;;;;;;;4.15;1.55;;;;;;;;;;5059351;28;20115;-76
2021/06/26 01:48:42;;;;;;;3.08;1.63;;;;;;;;;;5063940;28;20101;-76
2021/06/26 01:51:31;;;;;;;2.95;1.70;;;;;;;;;;5050880;28;20094;-76
2021/06/26 01:54:15;;;;;;;2.83;1.70;;;;;;;;;;5080108;28;20407;-75
2021/06/26 01:57:00;;;;;;;3.78;1.55;;;;;;;;;;5076630;28;20051;-76
2021/06/26 01:59:44;;;;;;;3.65;1.48;;;;;;;;;;5064556;28;20058;-76
2021/06/26 02:02:29;;;;;;;4.18;1.60;;;;;;;;;;5066437;28;20458;-76
2021/06/26 02:05:14;;;;;;;3.60;1.63;;;;;;;;;;5066070;28;20081;-76
2021/06/26 02:08:01;;;;;;;3.58;2.10;;;;;;;;;;5064072;28;20071;-76
2021/06/26 02:10:46;;;;;;;2.97;1.60;;;;;;;;;;5071727;28;20078;-76
2021/06/26 02:13:30;;;;;;;3.22;1.60;;;;;;;;;;5059386;28;20510;-76
2021/06/26 02:16:15;;;;;;;4.75;1.77;;;;;;;;;;5066319;28;20074;-76
2021/06/26 02:19:00;;;;;;;3.15;1.45;;;;;;;;;;5066339;28;20053;-76
2021/06/26 02:21:44;;;;;;;3.10;1.73;;;;;;;;;;5065212;28;20040;-75
2021/06/26 02:24:29;;;;;;;3.15;1.60;;;;;;;;;;5064502;28;20067;-76
2021/06/26 02:27:14;;;;;;;2.70;1.75;;;;;;;;;;5084396;28;20043;-76
2021/06/26 02:29:59;;;;;;;3.97;1.70;;;;;;;;;;5075068;28;20039;-76
2021/06/26 02:32:44;;;;;;;3.13;1.70;;;;;;;;;;5070372;28;20518;-76
2021/06/26 02:35:29;;;;;;;3.13;1.80;;;;;;;;;;5075257;28;20735;-76
2021/06/26 02:38:13;;;;;;;4.22;1.77;;;;;;;;;;5077361;28;20046;-76
2021/06/26 02:40:58;;;;;;;3.38;1.80;;;;;;;;;;5074587;28;20078;-76
2021/06/26 02:43:42;;;;;;;3.58;1.50;;;;;;;;;;5067348;28;20043;-77
2021/06/26 02:46:27;;;;;;;3.88;1.90;;;;;;;;;;5068586;28;20085;-76
2021/06/26 02:49:11;;;;;;;4.28;1.85;;;;;;;;;;5068511;28;20048;-76
2021/06/26 02:51:56;;;;;;;3.60;1.50;;;;;;;;;;5062411;28;20075;-76
2021/06/26 02:54:41;;;;;;;2.13;1.50;;;;;;;;;;5082175;28;20564;-76
2021/06/26 02:57:25;;;;;;;3.00;1.70;;;;;;;;;;5066298;28;20201;-76
2021/06/26 03:00:10;;;;;;;3.17;1.60;;;;;;;;;;5057891;28;20198;-76
2021/06/26 03:02:55;;;;;;;3.20;1.67;;;;;;;;;;5070327;28;20043;-76
2021/06/26 03:05:39;;;;;;;2.50;1.52;;;;;;;;;;5051960;28;20038;-76
2021/06/26 03:08:24;;;;;;;3.20;1.73;;;;;;;;;;5068073;28;20035;-76
2021/06/26 03:11:08;;;;;;;4.22;1.60;;;;;;;;;;5054238;28;20039;-76
2021/06/26 03:13:53;;;;;;;3.17;1.50;;;;;;;;;;5077532;28;20044;-76
2021/06/26 03:16:38;;;;;;;3.78;1.60;;;;;;;;;;5076318;28;20505;-76
2021/06/26 03:19:22;;;;;;;3.08;1.65;;;;;;;;;;5073733;28;20114;-76
2021/06/26 03:22:07;;;;;;;5.22;1.73;;;;;;;;;;5070055;28;20042;-76
2021/06/26 03:24:51;;;;;;;3.08;1.95;;;;;;;;;;5072671;28;20114;-76
2021/06/26 03:27:39;;;;;;;4.10;1.65;;;;;;;;;;5082572;28;20071;-76
2021/06/26 03:30:24;;;;;;;3.28;1.55;;;;;;;;;;5066402;28;20418;-75
2021/06/26 03:33:08;;;;;;;2.42;1.52;;;;;;;;;;5045365;28;20039;-76
2021/06/26 03:35:53;;;;;;;3.55;1.50;;;;;;;;;;5071396;28;20618;-76
2021/06/26 03:38:38;;;;;;;3.17;1.50;;;;;;;;;;5063277;28;20043;-76
2021/06/26 03:41:28;;;;;;;3.03;1.60;;;;;;;;;;5066149;28;20074;-76
2021/06/26 03:44:13;;;;;;;2.53;1.55;;;;;;;;;;5071785;28;20639;-76
2021/06/26 03:46:57;;;;;;;2.83;1.70;;;;;;;;;;5074648;28;20078;-76
2021/06/26 03:49:42;;;;;;;2.92;1.50;;;;;;;;;;5066997;28;20038;-76
2021/06/26 03:52:27;;;;;;;2.53;1.50;;;;;;;;;;5067750;28;20047;-76
2021/06/26 03:55:12;;;;;;;3.08;1.80;;;;;;;;;;5072814;28;20146;-76
2021/06/26 03:57:56;;;;;;;3.10;1.70;;;;;;;;;;5087617;28;20043;-76
2021/06/26 04:00:41;;;;;;;2.10;1.40;;;;;;;;;;5066833;28;20079;-76
2021/06/26 04:03:25;;;;;;;2.65;1.58;;;;;;;;;;5068924;28;20035;-75
2021/06/26 04:06:10;;;;;;;2.50;1.38;;;;;;;;;;5067015;28;20095;-75
2021/06/26 04:08:54;;;;;;;3.10;1.70;;;;;;;;;;5067151;28;20035;-76
2021/06/26 04:11:39;;;;;;;4.30;1.58;;;;;;;;;;5067747;28;20055;-76
2021/06/26 04:14:23;;;;;;;2.10;1.45;;;;;;;;;;5045076;28;20631;-75
2021/06/26 04:17:08;;;;;;;4.13;1.50;;;;;;;;;;5066111;28;20124;-76
2021/06/26 04:19:53;;;;;;;2.17;1.40;;;;;;;;;;5065278;28;20055;-75
2021/06/26 04:22:37;;;;;;;2.63;1.50;;;;;;;;;;5056886;28;20086;-75
2021/06/26 04:25:22;;;;;;;3.17;1.73;;;;;;;;;;5068328;28;20063;-75
2021/06/26 04:28:07;;;;;;;3.40;1.65;;;;;;;;;;5066432;28;20529;-75
2021/06/26 04:30:52;;;;;;;2.63;1.88;;;;;;;;;;5067872;28;20106;-75
2021/06/26 04:33:36;;;;;;;3.20;1.60;;;;;;;;;;5076321;28;20514;-75
2021/06/26 04:36:21;;;;;;;3.47;1.50;;;;;;;;;;5064831;28;20039;-76
2021/06/26 04:39:07;;;;;;;2.78;1.60;;;;;;;;;;5066044;28;20047;-75
2021/06/26 04:41:52;;;;;;;3.38;1.73;;;;;;;;;;5065173;28;20580;-75
2021/06/26 04:44:36;;;;;;;2.33;1.48;;;;;;;;;;5066363;28;20043;-76
2021/06/26 04:47:21;;;;;;;2.97;1.40;;;;;;;;;;5062793;28;20060;-76
2021/06/26 04:50:06;;;;;;;2.80;1.58;;;;;;;;;;5058381;28;20039;-76
2021/06/26 04:52:50;;;;;;;2.55;1.23;;;;;;;;;;5060770;28;20034;-76
2021/06/26 04:55:35;;;;;;;2.30;1.42;;;;;;;;;;5066842;28;20130;-76
2021/06/26 04:58:23;;;;;;;2.22;1.70;;;;;;;;;;5066373;28;20144;-76
2021/06/26 05:01:08;;;;;;;2.40;1.40;;;;;;;;;;5064701;28;20398;-76
2021/06/26 05:03:52;;;;;;;3.25;1.23;;;;;;;;;;5061801;28;20117;-76
2021/06/26 05:06:37;;;;;;;3.63;1.40;;;;;;;;;;5068518;28;20062;-76
2021/06/26 05:09:21;;;;;;;3.50;1.60;;;;;;;;;;5067978;28;20127;-76
2021/06/26 05:12:06;;;;;;;2.10;1.30;;;;;;;;;;5064979;28;20596;-78
2021/06/26 05:14:51;;;;;;;1.85;1.30;;;;;;;;;;5070074;28;20085;-76
2021/06/26 05:17:35;;;;;;;2.03;1.25;;;;;;;;;;5063298;28;20089;-77
2021/06/26 05:20:20;;;;;;;2.67;1.38;;;;;;;;;;5057956;28;20403;-76
2021/06/26 05:23:11;;;;;;;1.88;1.10;;;;;;;;;;5074009;28;20529;-76
2021/06/26 05:25:56;;;;;;;1.98;1.27;;;;;;;;;;5067761;28;20040;-76
2021/06/26 05:28:40;;;;;;;1.70;1.05;;;;;;;;;;5062528;28;20105;-76
2021/06/26 05:31:25;;;;;;;2.03;1.10;;;;;;;;;;5050593;28;20117;-76
2021/06/26 05:34:10;;;;;;;1.95;1.30;;;;;;;;;;5063881;28;20607;-76
2021/06/26 05:36:55;;;;;;;2.85;1.27;;;;;;;;;;5067606;28;20459;-76
2021/06/26 05:39:39;;;;;;;3.15;1.17;;;;;;;;;;5063019;28;20155;-77
2021/06/26 05:42:23;;;;;;;2.47;1.25;;;;;;;;;;5058536;28;20082;-76
2021/06/26 05:45:08;;;;;;;2.10;1.10;;;;;;;;;;5071183;28;20442;-76
2021/06/26 05:47:53;;;;;;;2.08;1.25;;;;;;;;;;5050640;28;20039;-76
2021/06/26 05:50:38;;;;;;;1.70;1.17;;;;;;;;;;5069616;28;20048;-77
2021/06/26 05:53:22;;;;;;;3.78;1.23;;;;;;;;;;5047929;28;20119;-76
2021/06/26 05:56:07;;;;;;;2.38;1.40;;;;;;;;;;5069304;28;20403;-75
2021/06/26 05:58:51;;;;;;;2.30;1.20;;;;;;;;;;5082514;28;20314;-76
2021/06/26 06:01:36;;;;;;;1.52;1.10;;;;;;;;;;5063075;28;20090;-76
2021/06/26 06:04:20;;;;;;;2.13;1.15;;;;;;;;;;5049612;28;20098;-78
2021/06/26 06:07:05;;;;;;;2.92;1.10;;;;;;;;;;5058950;28;20090;-76
2021/06/26 06:09:49;;;;;;;2.45;1.42;;;;;;;;;;5064517;28;20087;-76
2021/06/26 06:12:34;;;;;;;2.42;1.20;;;;;;;;;;5049237;28;20051;-75
2021/06/26 06:15:18;;;;;;;3.00;1.38;;;;;;;;;;5051904;28;20558;-76
2021/06/26 06:18:03;;;;;;;1.88;1.25;;;;;;;;;;5067117;28;20125;-76
2021/06/26 06:20:48;;;;;;;3.10;2.33;;;;;;;;;;5073886;28;20110;-76
2021/06/26 06:23:32;;;;;;;1.45;0.98;;;;;;;;;;5063337;28;20039;-76
2021/06/26 06:26:17;;;;;;;1.85;1.17;;;;;;;;;;5066522;28;20585;-76
2021/06/26 06:29:01;;;;;;;2.33;1.20;;;;;;;;;;5065415;28;20132;-76
2021/06/26 06:31:46;;;;;;;1.63;1.08;;;;;;;;;;5053876;28;20066;-76
2021/06/26 06:34:30;;;;;;;3.70;1.40;;;;;;;;;;5070962;28;20043;-76
2021/06/26 06:37:16;;;;;;;2.83;1.23;;;;;;;;;;5066538;28;20043;-76
2021/06/26 06:40:01;;;;;;;2.17;1.25;;;;;;;;;;5068835;28;20051;-76
2021/06/26 06:42:46;;;;;;;3.22;1.30;;;;;;;;;;5060938;28;20593;-76
2021/06/26 06:45:30;;;;;;;1.90;1.10;;;;;;;;;;5052981;28;20486;-76
2021/06/26 06:48:15;;;;;;;3.50;1.50;;;;;;;;;;5073242;28;20410;-77
2021/06/26 06:50:59;;;;;;;2.38;1.30;;;;;;;;;;5078249;28;20091;-75
2021/06/26 06:53:44;;;;;;;3.63;1.40;;;;;;;;;;5050336;28;20040;-73
2021/06/26 06:56:29;;;;;;;2.05;1.40;;;;;;;;;;5085739;28;20047;-74
2021/06/26 06:59:14;;;;;;;3.63;1.38;;;;;;;;;;5070979;28;20558;-74
2021/06/26 07:01:59;;;;;;;1.92;1.08;;;;;;;;;;5063760;28;20115;-73
2021/06/26 07:04:43;;;;;;;2.03;1.50;;;;;;;;;;5084770;28;20467;-75
2021/06/26 07:07:28;;;;;;;2.08;1.10;;;;;;;;;;5085770;28;20039;-74
2021/06/26 07:10:13;;;;;;;2.42;1.10;;;;;;;;;;5080184;28;20051;-73
2021/06/26 07:12:57;;;;;;;2.38;1.20;;;;;;;;;;5071397;28;20063;-73
2021/06/26 07:15:42;;;;;;;1.48;1.08;;;;;;;;;;5073261;28;20127;-73
2021/06/26 07:18:26;;;;;;;3.60;1.10;;;;;;;;;;5050886;28;20533;-73
2021/06/26 07:21:11;;;;;;;1.50;1.20;;;;;;;;;;5078401;28;20065;-72
2021/06/26 07:23:56;;;;;;;2.03;1.17;;;;;;;;;;5075684;28;20054;-75
2021/06/26 07:26:40;;;;;;;2.17;1.13;;;;;;;;;;5081069;28;20047;-74
2021/06/26 07:29:25;;;;;;;2.05;1.20;;;;;;;;;;5071868;28;20135;-74
2021/06/26 07:32:10;;;;;;;1.98;1.20;;;;;;;;;;5061597;28;20083;-75
2021/06/26 07:34:54;;;;;;;3.08;1.00;;;;;;;;;;5070396;28;20039;-75
2021/06/26 07:37:39;;;;;;;2.60;1.30;;;;;;;;;;5064156;28;20040;-75
2021/06/26 07:40:25;;;;;;;2.60;1.70;;;;;;;;;;5055126;28;20042;-74
2021/06/26 07:43:10;;;;;;;1.75;1.08;;;;;;;;;;5065389;28;20038;-74
2021/06/26 07:45:55;;;;;;;1.70;0.90;;;;;;;;;;5061811;28;20733;-74
2021/06/26 07:48:40;;;;;;;1.77;1.13;;;;;;;;;;5052512;28;20036;-74
2021/06/26 07:51:24;;;;;;;2.75;1.20;;;;;;;;;;5065006;28;20097;-75
2021/06/26 07:54:08;;;;;;;3.25;1.48;;;;;;;;;;5063342;28;20039;-74
2021/06/26 07:56:53;;;;;;;1.20;0.90;;;;;;;;;;5070493;28;20075;-74
2021/06/26 07:59:38;;;;;;;1.55;1.00;;;;;;;;;;5045408;28;20526;-75
2021/06/26 08:02:22;;;;;;;3.38;1.25;;;;;;;;;;5061700;28;20047;-74
2021/06/26 08:05:07;;;;;;;1.80;0.80;;;;;;;;;;5064751;28;20089;-75
2021/06/26 08:07:52;;;;;;;1.58;0.90;;;;;;;;;;5064776;28;20913;-74
2021/06/26 08:10:37;;;;;;;1.77;0.90;;;;;;;;;;5070589;28;20054;-74
2021/06/26 08:13:24;;;;;;;1.98;1.00;;;;;;;;;;5061272;28;20583;-74
2021/06/26 08:16:08;;;;;;;0.98;0.77;;;;;;;;;;5064758;28;20669;-74
2021/06/26 08:18:53;;;;;;;1.73;1.15;;;;;;;;;;5065770;28;20427;-75
2021/06/26 08:21:37;;;;;;;1.80;0.98;;;;;;;;;;5064961;28;20040;-75
2021/06/26 08:24:22;;;;;;;1.55;0.98;;;;;;;;;;5075402;28;20090;-74
2021/06/26 08:27:08;;;;;;;1.60;0.90;;;;;;;;;;5045521;28;20160;-75
2021/06/26 08:29:53;;;;;;;2.33;0.90;;;;;;;;;;5063660;28;20810;-74
2021/06/26 08:32:37;;;;;;;1.83;0.98;;;;;;;;;;5076335;28;20046;-76
2021/06/26 08:35:22;;;;;;;1.23;0.88;;;;;;;;;;5064172;28;20124;-75
2021/06/26 08:38:08;;;;;;;1.20;1.00;;;;;;;;;;5063502;28;20039;-76
2021/06/26 08:40:54;;;;;;;1.48;0.90;;;;;;;;;;5060991;28;20074;-75
2021/06/26 08:43:38;;;;;;;1.20;0.90;;;;;;;;;;5069703;28;20086;-76
2021/06/26 08:46:23;;;;;;;2.58;1.00;;;;;;;;;;5044358;28;20051;-76
2021/06/26 08:49:08;;;;;;;2.83;1.00;;;;;;;;;;5069334;28;20035;-75
2021/06/26 08:51:54;;;;;;;1.92;1.08;;;;;;;;;;5076279;28;20128;-76
2021/06/26 08:54:38;;;;;;;1.48;0.90;;;;;;;;;;5060195;28;20074;-75
2021/06/26 08:57:41;;;;;;;2.60;0.90;;;;;;;;;;5063988;28;20135;-75
2021/06/26 09:00:26;;;;;;;1.67;0.90;;;;;;;;;;5058121;28;20667;-75
2021/06/26 09:03:12;;;;;;;1.00;0.80;;;;;;;;;;5057741;28;20039;-76
2021/06/26 09:06:01;;;;;;;2.20;1.00;;;;;;;;;;5058125;28;20438;-75
2021/06/26 09:08:50;;;;;;;1.30;0.90;;;;;;;;;;5071592;28;20632;-76
2021/06/26 09:11:34;;;;;;;1.48;0.98;;;;;;;;;;5063498;28;20070;-76
2021/06/26 09:14:19;;;;;;;1.42;0.80;;;;;;;;;;5050333;28;20043;-75
2021/06/26 09:17:06;;;;;;;1.33;0.90;;;;;;;;;;5060623;28;20089;-76
2021/06/26 09:19:54;;;;;;;1.10;0.80;;;;;;;;;;5062191;28;20405;-76
2021/06/26 09:22:40;;;;;;;1.58;0.85;;;;;;;;;;5067991;28;20047;-76
2021/06/26 09:25:31;;;;;;;1.73;0.90;;;;;;;;;;5074581;28;20047;-75
2021/06/26 09:28:26;;;;;;;1.40;0.80;;;;;;;;;;5063624;28;20032;-75
2021/06/26 09:31:15;;;;;;;1.60;0.88;;;;;;;;;;5062959;28;20055;-75
2021/06/26 09:34:00;;;;;;;1.63;0.90;;;;;;;;;;5062043;28;20117;-75
2021/06/26 09:36:45;;;;;;;1.63;0.85;;;;;;;;;;5055784;28;20097;-75
2021/06/26 09:39:56;;;;;;;1.60;0.90;;;;;;;;;;5047892;28;20047;-75
2021/06/26 09:42:41;;;;;;;2.33;0.85;;;;;;;;;;5063278;28;20131;-76
2021/06/26 09:45:26;;;;;;;1.35;0.90;;;;;;;;;;5060193;28;20062;-76
2021/06/26 09:48:12;;;;;;;4.20;0.98;;;;;;;;;;5061977;28;20051;-76
2021/06/26 09:50:57;;;;;;;2.13;0.90;;;;;;;;;;5051454;28;20159;-75
2021/06/26 09:53:49;;;;;;;2.20;0.90;;;;;;;;;;5067635;28;20051;-75
2021/06/26 09:56:37;;;;;;;1.33;0.90;;;;;;;;;;5066414;28;20108;-76
2021/06/26 09:59:29;;;;;;;1.67;0.93;;;;;;;;;;5067843;28;20064;-76
2021/06/26 10:02:16;;;;;;;2.38;0.90;;;;;;;;;;5067898;28;20036;-76
2021/06/26 10:05:02;;;;;;;1.23;0.88;;;;;;;;;;5066716;28;20055;-77
2021/06/26 10:07:47;;;;;;;2.72;0.93;;;;;;;;;;5055195;28;20039;-76
2021/06/26 10:10:32;;;;;;;1.40;0.98;;;;;;;;;;5068504;28;20051;-76
2021/06/26 10:13:17;;;;;;;1.15;0.90;;;;;;;;;;5058267;28;20044;-75
2021/06/26 10:16:02;;;;;;;1.70;0.95;;;;;;;;;;5065839;28;20132;-76
2021/06/26 10:18:46;;;;;;;0.98;0.85;;;;;;;;;;5052779;28;20043;-75
2021/06/26 10:21:31;;;;;;;2.50;0.90;;;;;;;;;;5067448;28;20040;-77
2021/06/26 10:24:16;;;;;;;2.28;0.98;;;;;;;;;;5052042;28;20477;-76
2021/06/26 10:27:01;;;;;;;1.25;0.90;;;;;;;;;;5064422;28;20062;-77
2021/06/26 10:29:45;;;;;;;1.90;0.90;;;;;;;;;;5066806;28;20509;-76
2021/06/26 10:32:30;;;;;;;1.55;0.80;;;;;;;;;;5052451;28;20056;-76
2021/06/26 10:35:15;;;;;;;1.20;0.80;;;;;;;;;;5072192;28;20104;-76
2021/06/26 10:38:00;;;;;;;1.67;0.90;;;;;;;;;;5065452;28;20474;-76
2021/06/26 10:40:48;;;;;;;2.58;1.00;;;;;;;;;;5068523;28;20086;-77
2021/06/26 10:43:33;;;;;;;2.92;0.90;;;;;;;;;;5065782;28;20127;-76
2021/06/26 10:46:18;;;;;;;5.38;1.00;;;;;;;;;;5061193;28;20498;-77
2021/06/26 10:49:07;;;;;;;4.28;1.33;;;;;;;;;;5057750;28;20038;-76
2021/06/26 10:51:52;;;;;;;3.03;1.02;;;;;;;;;;5031959;28;20094;-76
2021/06/26 10:54:36;;;;;;;2.80;0.90;;;;;;;;;;5062438;28;20116;-76
2021/06/26 10:57:21;;;;;;;2.13;0.98;;;;;;;;;;5064972;28;20106;-75
2021/06/26 11:00:08;;;;;;;2.05;1.10;;;;;;;;;;5079218;28;20066;-77
2021/06/26 11:02:52;;;;;;;3.33;1.00;;;;;;;;;;5065727;28;20091;-77
2021/06/26 11:05:37;;;;;;;3.83;1.17;;;;;;;;;;5073793;28;20086;-74
2021/06/26 11:08:22;;;;;;;2.78;0.88;;;;;;;;;;5065581;28;20082;-74
2021/06/26 11:11:06;;;;;;;1.50;0.90;;;;;;;;;;5065396;28;20128;-74
2021/06/26 11:13:51;;;;;;;1.67;0.88;;;;;;;;;;5055664;28;20505;-74
2021/06/26 11:16:35;;;;;;;4.47;1.15;;;;;;;;;;5052794;28;20498;-74
2021/06/26 11:19:21;;;;;;;2.63;0.90;;;;;;;;;;5051145;28;20058;-74
2021/06/26 11:22:06;;;;;;;3.50;1.30;;;;;;;;;;5065265;28;20079;-74
2021/06/26 11:24:50;;;;;;;1.55;1.00;;;;;;;;;;5066415;28;20526;-74
2021/06/26 11:27:35;;;;;;;3.95;1.20;;;;;;;;;;5050930;28;20077;-74
2021/06/26 11:30:20;;;;;;;2.53;1.05;;;;;;;;;;5065025;28;20669;-75
2021/06/26 11:33:05;;;;;;;2.92;1.10;;;;;;;;;;5064868;28;20569;-74
2021/06/26 11:35:50;;;;;;;2.88;1.00;;;;;;;;;;5065059;28;20079;-74
2021/06/26 11:38:34;;;;;;;2.00;0.90;;;;;;;;;;5064950;28;20685;-74
2021/06/26 11:41:20;;;;;;;3.22;1.10;;;;;;;;;;5065723;28;20079;-74
2021/06/26 11:44:06;;;;;;;3.70;1.30;;;;;;;;;;5065363;28;20117;-74
2021/06/26 11:46:59;;;;;;;4.07;1.30;;;;;;;;;;5065600;28;20040;-74
2021/06/26 11:49:45;;;;;;;3.53;1.20;;;;;;;;;;5064639;28;20086;-74
2021/06/26 11:52:34;;;;;;;3.90;1.10;;;;;;;;;;5064611;28;20078;-74
2021/06/26 11:55:18;;;;;;;3.75;1.17;;;;;;;;;;5064524;28;20043;-74
2021/06/26 11:58:03;;;;;;;5.22;1.15;;;;;;;;;;5064340;28;20129;-74
2021/06/26 12:01:01;;;;;;;3.78;1.20;;;;;;;;;;5050295;28;20119;-74
2021/06/26 12:03:46;;;;;;;3.25;1.50;;;;;;;;;;5044634;28;20076;-74
2021/06/26 12:06:31;;;;;;;4.55;1.30;;;;;;;;;;5045226;28;20064;-74
2021/06/26 12:09:18;;;;;;;2.22;1.05;;;;;;;;;;5044732;28;20044;-74
2021/06/26 12:12:03;;;;;;;2.83;1.35;;;;;;;;;;5029920;28;20130;-73
2021/06/26 12:14:47;;;;;;;4.07;1.00;;;;;;;;;;5030599;28;20051;-74
2021/06/26 12:17:32;;;;;;;3.50;1.48;;;;;;;;;;5044030;28;20654;-73
2021/06/26 12:20:17;;;;;;;2.42;1.00;;;;;;;;;;5052596;28;20043;-74
2021/06/26 12:23:05;;;;;;;3.60;1.42;;;;;;;;;;5050252;28;20051;-73
2021/06/26 12:25:49;;;;;;;2.65;1.10;;;;;;;;;;5065395;28;20604;-74
2021/06/26 12:28:41;;;;;;;2.45;1.00;;;;;;;;;;5064990;28;20048;-73
2021/06/26 12:31:25;;;;;;;3.77;1.10;;;;;;;;;;5065085;28;20044;-74
2021/06/26 12:34:10;;;;;;;2.42;1.10;;;;;;;;;;5064841;28;20822;-73
2021/06/26 12:36:57;;;;;;;2.25;0.88;;;;;;;;;;5064860;28;20139;-74
2021/06/26 12:39:42;;;;;;;2.63;1.30;;;;;;;;;;5072323;28;20395;-74
2021/06/26 12:42:27;;;;;;;4.13;1.15;;;;;;;;;;5053822;28;20043;-74
2021/06/26 12:45:12;;;;;;;3.95;1.30;;;;;;;;;;5063343;28;20086;-75
2021/06/26 12:47:58;;;;;;;2.15;1.10;;;;;;;;;;5064892;28;20090;-74
2021/06/26 12:51:00;;;;;;;3.60;1.40;;;;;;;;;;5058991;28;20051;-76
2021/06/26 12:53:46;;;;;;;1.77;1.17;;;;;;;;;;5063754;28;20039;-76
2021/06/26 12:56:32;;;;;;;3.22;1.20;;;;;;;;;;5046261;28;20109;-76
2021/06/26 12:59:17;;;;;;;2.50;1.10;;;;;;;;;;5061170;28;20731;-76
2021/06/26 13:02:03;;;;;;;3.08;1.05;;;;;;;;;;5038724;28;20170;-76
2021/06/26 13:04:50;;;;;;;3.42;1.40;;;;;;;;;;5043332;28;20044;-75
2021/06/26 13:07:34;;;;;;;3.25;1.00;;;;;;;;;;5054006;28;20823;-76
2021/06/26 13:10:19;;;;;;;2.80;1.20;;;;;;;;;;5060922;28;20453;-75
2021/06/26 13:13:04;;;;;;;2.35;1.10;;;;;;;;;;5060744;28;20125;-75
2021/06/26 13:15:48;;;;;;;1.90;0.98;;;;;;;;;;5056546;28;20128;-75
2021/06/26 13:18:33;;;;;;;2.78;0.90;;;;;;;;;;5061640;28;20042;-75
2021/06/26 13:21:18;;;;;;;2.38;1.20;;;;;;;;;;5061020;28;20031;-75
2021/06/26 13:24:02;;;;;;;6.47;1.30;;;;;;;;;;5062520;28;20117;-76
2021/06/26 13:26:46;;;;;;;3.05;1.15;;;;;;;;;;5063076;28;20044;-75
2021/06/26 13:29:31;;;;;;;3.53;1.00;;;;;;;;;;5062222;28;20078;-76
2021/06/26 13:32:15;;;;;;;2.85;1.10;;;;;;;;;;5047141;28;20478;-76
2021/06/26 13:35:00;;;;;;;3.95;1.10;;;;;;;;;;5060154;28;20039;-76
2021/06/26 13:37:44;;;;;;;3.15;1.10;;;;;;;;;;5042831;28;20124;-75
2021/06/26 13:40:29;;;;;;;3.20;1.17;;;;;;;;;;5053415;28;20576;-75
2021/06/26 13:43:13;;;;;;;1.63;1.00;;;;;;;;;;5059985;28;20431;-76
2021/06/26 13:45:58;;;;;;;3.45;1.40;;;;;;;;;;5052474;28;20130;-75
2021/06/26 13:48:42;;;;;;;2.25;1.10;;;;;;;;;;5063709;28;20043;-75
2021/06/26 13:51:28;;;;;;;3.20;0.90;;;;;;;;;;5062999;28;20498;-75
2021/06/26 13:54:12;;;;;;;2.33;1.10;;;;;;;;;;5061777;28;20540;-75
2021/06/26 13:56:57;;;;;;;1.85;1.00;;;;;;;;;;5063001;28;20078;-75
2021/06/26 13:59:42;;;;;;;2.15;1.00;;;;;;;;;;5048296;28;20067;-75
2021/06/26 14:02:27;;;;;;;2.38;1.20;;;;;;;;;;5062011;28;20580;-75
2021/06/26 14:05:11;;;;;;;2.08;1.17;;;;;;;;;;5055150;28;20171;-76
2021/06/26 14:07:56;;;;;;;2.28;1.00;;;;;;;;;;5062411;28;20083;-75
2021/06/26 14:10:41;;;;;;;2.63;1.10;;;;;;;;;;5060167;28;20111;-75
2021/06/26 14:13:27;;;;;;;1.65;0.98;;;;;;;;;;5057973;28;20769;-76
2021/06/26 14:16:11;;;;;;;2.42;1.00;;;;;;;;;;5062064;28;20035;-76
2021/06/26 14:18:56;;;;;;;2.22;1.00;;;;;;;;;;5063842;28;20679;-75
2021/06/26 14:21:41;;;;;;;1.40;1.00;;;;;;;;;;5063780;28;20070;-75
2021/06/26 14:24:25;;;;;;;2.20;1.00;;;;;;;;;;5063287;28;20098;-75
2021/06/26 14:27:10;;;;;;;1.95;1.10;;;;;;;;;;5058928;28;20590;-74
2021/06/26 14:29:55;;;;;;;1.35;0.88;;;;;;;;;;5046590;28;20536;-75
2021/06/26 14:32:39;;;;;;;1.88;0.93;;;;;;;;;;5060973;28;20510;-74
2021/06/26 14:35:24;;;;;;;1.77;1.00;;;;;;;;;;5056356;28;20055;-73
2021/06/26 14:38:10;;;;;;;1.50;1.02;;;;;;;;;;5066965;28;20181;-73
2021/06/26 14:40:55;;;;;;;2.40;1.23;;;;;;;;;;5057554;28;20085;-73
2021/06/26 14:43:39;;;;;;;2.58;1.00;;;;;;;;;;5071625;28;20042;-73
2021/06/26 14:46:24;;;;;;;2.13;1.30;;;;;;;;;;5066236;28;20533;-73
2021/06/26 14:49:08;;;;;;;2.85;1.20;;;;;;;;;;5069573;28;20085;-73
2021/06/26 14:51:53;;;;;;;1.65;1.00;;;;;;;;;;5036141;28;20151;-73
2021/06/26 14:54:38;;;;;;;4.03;1.10;;;;;;;;;;5046598;28;20044;-73
2021/06/26 14:57:22;;;;;;;1.95;1.00;;;;;;;;;;5057641;28;20120;-73
2021/06/26 15:00:07;;;;;;;1.85;1.02;;;;;;;;;;5074556;28;20604;-73
2021/06/26 15:02:52;;;;;;;2.88;1.20;;;;;;;;;;5071349;28;20034;-73
2021/06/26 15:05:36;;;;;;;2.35;1.10;;;;;;;;;;5065827;28;20055;-74
2021/06/26 15:08:21;;;;;;;3.33;1.23;;;;;;;;;;5073565;28;20788;-73
2021/06/26 15:11:05;;;;;;;1.60;1.00;;;;;;;;;;5067051;28;20419;-73
2021/06/26 15:13:50;;;;;;;1.40;1.08;;;;;;;;;;5080480;28;20107;-73
2021/06/26 15:16:34;;;;;;;3.95;1.33;;;;;;;;;;5066070;28;20070;-73
2021/06/26 15:19:18;;;;;;;2.15;1.10;;;;;;;;;;5049473;28;20035;-74
2021/06/26 15:22:03;;;;;;;1.58;1.02;;;;;;;;;;5069721;28;20546;-73
2021/06/26 15:24:48;;;;;;;1.90;0.90;;;;;;;;;;5053084;28;20078;-73
2021/06/26 15:27:33;;;;;;;1.70;1.10;;;;;;;;;;5065459;28;20505;-75
2021/06/26 15:30:18;;;;;;;2.92;1.10;;;;;;;;;;5070469;28;20491;-73
2021/06/26 15:33:03;;;;;;;1.10;0.90;;;;;;;;;;5081407;28;20066;-73
2021/06/26 15:35:52;;;;;;;3.80;1.02;;;;;;;;;;5065216;28;20035;-73
2021/06/26 15:38:37;;;;;;;2.67;1.02;;;;;;;;;;5069044;28;20039;-73
2021/06/26 15:41:22;;;;;;;2.53;1.05;;;;;;;;;;5075579;28;20714;-74
2021/06/26 15:44:06;;;;;;;2.97;1.10;;;;;;;;;;5078210;28;20043;-75
2021/06/26 15:46:51;;;;;;;1.33;1.02;;;;;;;;;;5073060;28;20059;-73
2021/06/26 15:49:36;;;;;;;1.73;1.00;;;;;;;;;;5066189;28;20403;-73
2021/06/26 15:52:20;;;;;;;1.30;1.00;;;;;;;;;;5065280;28;20074;-73
2021/06/26 15:55:05;;;;;;;1.63;0.98;;;;;;;;;;5064598;28;20046;-72
2021/06/26 15:57:50;;;;;;;2.38;1.30;;;;;;;;;;5067174;28;20129;-73
2021/06/26 16:00:34;;;;;;;1.90;1.10;;;;;;;;;;5074766;28;20071;-72
2021/06/26 16:03:19;;;;;;;1.30;0.93;;;;;;;;;;5073533;28;20063;-74
2021/06/26 16:06:04;;;;;;;1.70;1.00;;;;;;;;;;5082673;28;20419;-73
2021/06/26 16:08:49;;;;;;;2.30;1.13;;;;;;;;;;5079382;28;20050;-73
2021/06/26 16:11:34;;;;;;;1.83;1.08;;;;;;;;;;5080147;28;20501;-73
2021/06/26 16:14:19;;;;;;;2.33;1.10;;;;;;;;;;5085693;28;20039;-74
2021/06/26 16:17:03;;;;;;;2.75;1.10;;;;;;;;;;5048086;28;20453;-73
2021/06/26 16:19:48;;;;;;;2.70;1.10;;;;;;;;;;5070867;28;20433;-74
2021/06/26 16:22:33;;;;;;;1.77;1.20;;;;;;;;;;5071273;28;20060;-73
2021/06/26 16:25:18;;;;;;;2.22;1.30;;;;;;;;;;5051356;28;20118;-73
2021/06/26 16:28:02;;;;;;;1.90;1.10;;;;;;;;;;5069600;28;20497;-73
2021/06/26 16:30:47;;;;;;;1.15;1.05;;;;;;;;;;5068261;28;20043;-74